createdAt,value
2018-09-26T00:00:38.794Z,103146.97
2018-09-26T00:03:15.247Z,103142.87
2018-09-26T00:05:47.166Z,103142.13
2018-09-26T00:08:16.732Z,103146.27
2018-09-26T00:10:46.190Z,103150.10
2018-09-26T00:13:15.990Z,103147.41
2018-09-26T00:15:45.354Z,103145.73
2018-09-26T00:18:14.719Z,103141.74
2018-09-26T00:20:44.110Z,103140.04
2018-09-26T00:23:13.439Z,103137.77
2018-09-26T00:25:42.788Z,103135.19
2018-09-26T00:28:12.548Z,103125.02
2018-09-26T00:30:42.427Z,103124.38
2018-09-26T00:33:11.763Z,103137.21
2018-09-26T00:35:41.448Z,103130.80
2018-09-26T00:38:10.770Z,103138.11
2018-09-26T00:40:40.151Z,103125.61
2018-09-26T00:43:09.940Z,103124.14
2018-09-26T00:45:39.308Z,103117.65
2018-09-26T00:48:09.691Z,103122.84
2018-09-26T00:50:39.060Z,103115.52
2018-09-26T00:53:08.471Z,103109.03
2018-09-26T00:55:37.800Z,103097.83
2018-09-26T00:58:07.181Z,103082.33
2018-09-26T01:00:36.507Z,103084.37
2018-09-26T01:03:05.862Z,103079.18
2018-09-26T01:05:35.621Z,103080.95
2018-09-26T01:08:05.049Z,103069.19
2018-09-26T01:10:34.388Z,103066.67
2018-09-26T01:13:03.947Z,103061.01
2018-09-26T01:15:33.281Z,103056.70
2018-09-26T01:18:02.764Z,103048.14
2018-09-26T01:20:33.068Z,103055.40
2018-09-26T01:23:02.409Z,103060.60
2018-09-26T01:25:31.757Z,103054.05
2018-09-26T01:28:01.102Z,103057.52
2018-09-26T01:30:30.474Z,103057.09
2018-09-26T01:32:59.929Z,103049.72
2018-09-26T01:35:29.257Z,103052.20
2018-09-26T01:38:17.584Z,103050.27
2018-09-26T01:40:53.548Z,103043.66
2018-09-26T01:43:22.957Z,103046.59
2018-09-26T01:45:52.295Z,103057.39
2018-09-26T01:48:21.704Z,103057.86
2018-09-26T01:50:51.456Z,103060.78
2018-09-26T01:53:22.788Z,103070.27
2018-09-26T01:55:52.102Z,103063.24
2018-09-26T01:58:21.451Z,103056.80
2018-09-26T02:00:50.844Z,103046.78
2018-09-26T02:03:20.192Z,103038.99
2018-09-26T02:05:49.547Z,103036.25
2018-09-26T02:08:18.900Z,103032.28
2018-09-26T02:10:48.239Z,103029.55
2018-09-26T02:13:17.788Z,103022.72
2018-09-26T02:15:47.163Z,103027.44
2018-09-26T02:18:16.594Z,103022.14
2018-09-26T02:20:46.261Z,103030.43
2018-09-26T02:23:15.682Z,103040.25
2018-09-26T02:25:45.948Z,103034.16
2018-09-26T02:28:15.295Z,103038.14
2018-09-26T02:30:46.178Z,103038.05
2018-09-26T02:33:15.521Z,103035.40
2018-09-26T02:35:44.946Z,103016.83
2018-09-26T02:38:14.319Z,103019.89
2018-09-26T02:40:49.854Z,103020.23
2018-09-26T02:43:21.037Z,103027.94
2018-09-26T02:45:50.685Z,103025.41
2018-09-26T02:48:25.330Z,103021.53
2018-09-26T02:50:57.294Z,103011.50
2018-09-26T02:53:26.719Z,103008.02
2018-09-26T02:55:56.082Z,103027.06
2018-09-26T02:58:25.512Z,103024.84
2018-09-26T03:00:54.843Z,103017.14
2018-09-26T03:03:24.705Z,103018.91
2018-09-26T03:05:54.106Z,103018.84
2018-09-26T03:08:23.433Z,103000.22
2018-09-26T03:10:52.904Z,103006.60
2018-09-26T03:13:22.113Z,103010.17
2018-09-26T03:15:51.722Z,103019.60
2018-09-26T03:18:21.224Z,103031.66
2018-09-26T03:20:50.632Z,103043.82
2018-09-26T03:23:19.967Z,103028.64
2018-09-26T03:25:49.384Z,103019.50
2018-09-26T03:28:18.764Z,103033.44
2018-09-26T03:30:48.083Z,103020.81
2018-09-26T03:33:17.519Z,103011.33
2018-09-26T03:35:46.843Z,103009.96
2018-09-26T03:38:16.188Z,103010.83
2018-09-26T03:40:45.518Z,103002.55
2018-09-26T03:43:14.885Z,103000.53
2018-09-26T03:45:48.765Z,102995.70
2018-09-26T03:48:18.189Z,103000.45
2018-09-26T03:50:48.098Z,102999.17
2018-09-26T03:53:17.529Z,102991.38
2018-09-26T03:55:46.870Z,103004.41
2018-09-26T03:58:16.297Z,102999.09
2018-09-26T04:00:45.699Z,102994.94
2018-09-26T04:03:15.720Z,102997.88
2018-09-26T04:05:46.050Z,102990.50
2018-09-26T04:08:15.414Z,102992.61
2018-09-26T04:10:44.787Z,103005.14
2018-09-26T04:13:14.238Z,103003.84
2018-09-26T04:15:50.965Z,103000.86
2018-09-26T04:18:21.287Z,103002.02
2018-09-26T04:20:50.659Z,103004.53
2018-09-26T04:23:20.136Z,103011.30
2018-09-26T04:25:49.464Z,103015.75
2018-09-26T04:28:18.788Z,103013.02
2018-09-26T04:30:48.221Z,103012.30
2018-09-26T04:33:18.013Z,103010.19
2018-09-26T04:35:47.022Z,103008.80
2018-09-26T04:38:17.315Z,102999.31
2018-09-26T04:40:46.752Z,103002.39
2018-09-26T04:43:16.161Z,103002.42
2018-09-26T04:45:45.490Z,102997.22
2018-09-26T04:48:14.838Z,102998.20
2018-09-26T04:50:44.212Z,102998.05
2018-09-26T04:53:13.727Z,103002.02
2018-09-26T04:55:43.131Z,102999.08
2018-09-26T04:58:12.610Z,102993.59
2018-09-26T05:00:41.884Z,102995.83
2018-09-26T05:03:11.244Z,102990.26
2018-09-26T05:05:40.650Z,102992.17
2018-09-26T05:08:10.082Z,102993.45
2018-09-26T05:10:39.717Z,103002.95
2018-09-26T05:13:09.076Z,103006.11
2018-09-26T05:15:38.415Z,103001.74
2018-09-26T05:18:07.846Z,103005.20
2018-09-26T05:20:37.236Z,103019.41
2018-09-26T05:23:06.614Z,103011.72
2018-09-26T05:25:35.959Z,103014.23
2018-09-26T05:28:05.311Z,103011.30
2018-09-26T05:30:34.636Z,102998.25
2018-09-26T05:33:04.039Z,102999.63
2018-09-26T05:35:33.403Z,103001.25
2018-09-26T05:38:02.754Z,102999.56
2018-09-26T05:40:32.095Z,102997.45
2018-09-26T05:43:01.561Z,102999.48
2018-09-26T05:45:30.916Z,103004.32
2018-09-26T05:48:00.461Z,103015.19
2018-09-26T05:50:29.816Z,103012.20
2018-09-26T05:52:59.303Z,103011.84
2018-09-26T05:55:28.739Z,103014.45
2018-09-26T05:57:58.095Z,103008.86
2018-09-26T06:00:27.423Z,103006.28
2018-09-26T06:02:56.775Z,103011.20
2018-09-26T06:05:26.192Z,103011.74
2018-09-26T06:07:58.846Z,103003.19
2018-09-26T06:10:28.169Z,103005.47
2018-09-26T06:12:57.525Z,102996.77
2018-09-26T06:15:26.920Z,102993.44
2018-09-26T06:17:57.345Z,102994.87
2018-09-26T06:20:26.777Z,102995.41
2018-09-26T06:22:56.135Z,102996.81
2018-09-26T06:25:25.475Z,102992.05
2018-09-26T06:27:54.964Z,102993.41
2018-09-26T06:30:24.367Z,102989.58
2018-09-26T06:32:53.768Z,102992.70
2018-09-26T06:35:23.176Z,102988.91
2018-09-26T06:37:52.543Z,102995.11
2018-09-26T06:40:22.481Z,102990.84
2018-09-26T06:42:53.688Z,102996.97
2018-09-26T06:45:23.021Z,103001.66
2018-09-26T06:47:52.445Z,102982.91
2018-09-26T06:50:40.742Z,102980.03
2018-09-26T06:53:16.807Z,102991.81
2018-09-26T06:55:46.137Z,102996.89
2018-09-26T06:58:15.857Z,102993.92
2018-09-26T07:00:45.268Z,102983.78
2018-09-26T07:03:14.632Z,102980.45
2018-09-26T07:05:44.056Z,102969.40
2018-09-26T07:08:13.753Z,102967.67
2018-09-26T07:10:43.192Z,102981.47
2018-09-26T07:13:12.620Z,102988.19
2018-09-26T07:15:42.922Z,102992.79
2018-09-26T07:18:12.357Z,102988.75
2018-09-26T07:20:41.730Z,102992.87
2018-09-26T07:23:11.065Z,102999.83
2018-09-26T07:25:40.405Z,103016.44
2018-09-26T07:28:09.753Z,103006.37
2018-09-26T07:30:39.272Z,103001.30
2018-09-26T07:33:08.659Z,103000.86
2018-09-26T07:35:38.018Z,103006.92
2018-09-26T07:38:07.426Z,103005.64
2018-09-26T07:40:36.865Z,102997.39
2018-09-26T07:43:06.370Z,102999.09
2018-09-26T07:45:35.786Z,102995.67
2018-09-26T07:48:05.105Z,103003.51
2018-09-26T07:50:34.997Z,102998.27
2018-09-26T07:53:04.336Z,103000.47
2018-09-26T07:55:53.110Z,103000.03
2018-09-26T07:58:29.558Z,103005.24
2018-09-26T08:00:59.011Z,103004.38
2018-09-26T08:03:28.421Z,103000.03
2018-09-26T08:05:57.970Z,103007.83
2018-09-26T08:08:27.598Z,103007.89
2018-09-26T08:10:57.224Z,103005.98
2018-09-26T08:13:26.915Z,103007.20
2018-09-26T08:15:56.962Z,103000.23
2018-09-26T08:18:29.018Z,102998.93
2018-09-26T08:20:58.351Z,103006.47
2018-09-26T08:23:27.743Z,103001.61
2018-09-26T08:25:57.162Z,103004.39
2018-09-26T08:28:26.560Z,102995.99
2018-09-26T08:30:55.963Z,102996.70
2018-09-26T08:33:25.370Z,102995.80
2018-09-26T08:35:54.720Z,102996.23
2018-09-26T08:38:24.183Z,102992.11
2018-09-26T08:40:53.923Z,102997.84
2018-09-26T08:43:23.421Z,102988.42
2018-09-26T08:45:52.836Z,102988.43
2018-09-26T08:48:22.470Z,102974.20
2018-09-26T08:50:51.826Z,102970.22
2018-09-26T08:53:21.195Z,102978.77
2018-09-26T08:55:50.586Z,102976.38
2018-09-26T08:58:20.020Z,102973.91
2018-09-26T09:02:11.351Z,102976.70
2018-09-26T09:04:47.423Z,102970.82
2018-09-26T09:07:16.825Z,102975.05
2018-09-26T09:09:46.672Z,102960.55
2018-09-26T09:12:16.597Z,102964.20
2018-09-26T09:14:46.643Z,102963.92
2018-09-26T09:17:15.960Z,102959.26
2018-09-26T09:19:45.367Z,102964.67
2018-09-26T09:22:14.791Z,102962.21
2018-09-26T09:24:44.159Z,102965.59
2018-09-26T09:27:13.650Z,102956.20
2018-09-26T09:29:43.001Z,102949.27
2018-09-26T09:32:12.427Z,102952.53
2018-09-26T09:34:42.845Z,102955.30
2018-09-26T09:37:12.248Z,102962.77
2018-09-26T09:39:41.649Z,102961.59
2018-09-26T09:42:11.050Z,102962.69
2018-09-26T09:44:41.187Z,102960.06
2018-09-26T09:47:10.580Z,102961.08
2018-09-26T09:49:40.051Z,102977.20
2018-09-26T09:52:09.438Z,102982.72
2018-09-26T09:54:38.959Z,102982.83
2018-09-26T09:57:08.469Z,102983.67
2018-09-26T09:59:40.652Z,102971.47
2018-09-26T10:02:10.073Z,102965.20
2018-09-26T10:04:39.479Z,102969.64
2018-09-26T10:07:09.215Z,102974.31
2018-09-26T10:09:39.186Z,102963.83
2018-09-26T10:12:09.271Z,102967.19
2018-09-26T10:14:40.444Z,102969.80
2018-09-26T10:17:09.796Z,102962.20
2018-09-26T10:19:39.252Z,102958.37
2018-09-26T10:22:08.660Z,102956.02
2018-09-26T10:24:38.008Z,102959.45
2018-09-26T10:27:07.484Z,102961.27
2018-09-26T10:29:36.844Z,102954.05
2018-09-26T10:32:06.323Z,102955.89
2018-09-26T10:34:35.663Z,102953.80
2018-09-26T10:37:05.073Z,102956.27
2018-09-26T10:39:34.475Z,102946.72
2018-09-26T10:42:04.804Z,102937.75
2018-09-26T10:44:34.205Z,102941.78
2018-09-26T10:47:03.711Z,102947.27
2018-09-26T10:49:33.110Z,102943.23
2018-09-26T10:52:02.547Z,102945.86
2018-09-26T10:54:32.032Z,102947.14
2018-09-26T10:57:01.415Z,102946.15
2018-09-26T10:59:30.791Z,102950.55
2018-09-26T11:02:00.190Z,102939.76
2018-09-26T11:04:29.538Z,102924.66
2018-09-26T11:06:58.913Z,102928.03
2018-09-26T11:09:46.938Z,102924.78
2018-09-26T11:12:23.690Z,102923.47
2018-09-26T11:14:53.576Z,102916.92
2018-09-26T11:17:22.950Z,102907.95
2018-09-26T11:19:52.425Z,102912.88
2018-09-26T11:22:21.925Z,102912.59
2018-09-26T11:24:51.230Z,102901.13
2018-09-26T11:27:20.697Z,102905.09
2018-09-26T11:29:50.073Z,102907.23
2018-09-26T11:32:19.495Z,102907.20
2018-09-26T11:34:48.991Z,102904.20
2018-09-26T11:37:18.347Z,102900.51
2018-09-26T11:39:47.725Z,102901.37
2018-09-26T11:42:17.204Z,102898.06
2018-09-26T11:44:46.835Z,102889.98
2018-09-26T11:47:16.062Z,102887.08
2018-09-26T11:49:45.448Z,102883.78
2018-09-26T11:52:14.858Z,102884.58
2018-09-26T11:54:44.238Z,102876.09
2018-09-26T11:57:13.579Z,102869.22
2018-09-26T11:59:43.127Z,102867.64
2018-09-26T12:02:13.002Z,102869.09
2018-09-26T12:04:42.467Z,102863.89
2018-09-26T12:07:11.907Z,102857.72
2018-09-26T12:09:41.254Z,102857.14
2018-09-26T12:12:11.389Z,102853.87
2018-09-26T12:14:59.129Z,102854.98
2018-09-26T12:17:35.101Z,102856.76
2018-09-26T12:20:04.572Z,102844.44
2018-09-26T12:22:34.169Z,102848.02
2018-09-26T12:25:03.610Z,102846.20
2018-09-26T12:27:33.061Z,102838.91
2018-09-26T12:30:02.455Z,102836.98
2018-09-26T12:32:31.909Z,102832.90
2018-09-26T12:35:01.631Z,102845.87
2018-09-26T12:37:30.958Z,102834.49
2018-09-26T12:40:00.331Z,102840.44
2018-09-26T12:42:29.793Z,102834.10
2018-09-26T12:44:59.212Z,102832.13
2018-09-26T12:47:30.530Z,102825.09
2018-09-26T12:49:59.986Z,102822.13
2018-09-26T12:52:29.340Z,102812.62
2018-09-26T12:54:59.938Z,102817.26
2018-09-26T12:57:29.315Z,102809.30
2018-09-26T13:00:00.286Z,102814.96
2018-09-26T13:02:30.227Z,102809.66
2018-09-26T13:04:59.605Z,102799.90
2018-09-26T13:07:29.070Z,102795.13
2018-09-26T13:09:58.471Z,102803.30
2018-09-26T13:12:27.924Z,102805.27
2018-09-26T13:14:57.365Z,102796.75
2018-09-26T13:17:26.737Z,102785.32
2018-09-26T13:20:15.128Z,102784.61
2018-09-26T13:22:50.889Z,102777.31
2018-09-26T13:25:21.230Z,102784.04
2018-09-26T13:27:50.773Z,102770.31
2018-09-26T13:30:20.959Z,102778.67
2018-09-26T13:32:50.360Z,102782.84
2018-09-26T13:35:19.807Z,102779.94
2018-09-26T13:37:49.624Z,102787.25
2018-09-26T13:40:19.671Z,102781.61
2018-09-26T13:42:49.116Z,102785.81
2018-09-26T13:45:18.535Z,102780.89
2018-09-26T13:47:47.955Z,102773.53
2018-09-26T13:50:17.449Z,102768.34
2018-09-26T13:52:47.661Z,102765.84
2018-09-26T13:55:17.141Z,102764.00
2018-09-26T13:57:46.570Z,102758.85
2018-09-26T14:00:17.489Z,102752.78
2018-09-26T14:02:47.703Z,102750.12
2018-09-26T14:05:17.295Z,102745.59
2018-09-26T14:07:46.875Z,102753.27
2018-09-26T14:10:16.268Z,102744.60
2018-09-26T14:12:46.315Z,102743.22
2018-09-26T14:15:15.793Z,102745.06
2018-09-26T14:17:45.308Z,102737.45
2018-09-26T14:20:36.960Z,102739.78
2018-09-26T14:23:25.509Z,102731.63
2018-09-26T14:26:02.415Z,102727.63
2018-09-26T14:28:31.922Z,102724.52
2018-09-26T14:31:01.454Z,102717.30
2018-09-26T14:33:30.862Z,102720.63
2018-09-26T14:36:00.362Z,102714.73
2018-09-26T14:38:30.050Z,102713.23
2018-09-26T14:40:59.528Z,102711.64
2018-09-26T14:43:29.036Z,102710.61
2018-09-26T14:45:58.706Z,102711.77
2018-09-26T14:48:28.188Z,102713.79
2018-09-26T14:50:57.646Z,102718.27
2018-09-26T14:53:27.345Z,102711.25
2018-09-26T14:55:56.823Z,102717.87
2018-09-26T14:58:26.338Z,102707.38
2018-09-26T15:00:56.017Z,102712.61
2018-09-26T15:03:25.536Z,102709.73
2018-09-26T15:05:55.201Z,102710.59
2018-09-26T15:08:24.892Z,102708.89
2018-09-26T15:10:54.372Z,102704.48
2018-09-26T15:13:23.812Z,102697.33
2018-09-26T15:15:53.396Z,102697.64
2018-09-26T15:18:22.970Z,102697.13
2018-09-26T15:20:52.468Z,102694.37
2018-09-26T15:23:22.591Z,102692.62
2018-09-26T15:25:52.991Z,102690.97
2018-09-26T15:28:41.812Z,102683.72
2018-09-26T15:31:15.920Z,102686.72
2018-09-26T15:33:45.639Z,102685.40
2018-09-26T15:36:15.264Z,102683.66
2018-09-26T15:38:45.414Z,102683.87
2018-09-26T15:41:14.959Z,102689.11
2018-09-26T15:43:44.517Z,102685.54
2018-09-26T15:46:14.114Z,102681.73
2018-09-26T15:48:43.670Z,102680.67
2018-09-26T15:51:13.195Z,102679.80
2018-09-26T15:53:42.732Z,102685.52
2018-09-26T15:56:12.356Z,102686.20
2018-09-26T15:58:42.576Z,102687.58
2018-09-26T16:01:12.454Z,102678.19
2018-09-26T16:06:36.214Z,102679.33
2018-09-26T16:09:06.360Z,102676.64
2018-09-26T16:11:35.853Z,102682.50
2018-09-26T16:14:05.261Z,102677.79
2018-09-26T16:16:34.781Z,102681.88
2018-09-26T16:19:04.198Z,102677.14
2018-09-26T16:21:33.634Z,102670.52
2018-09-26T16:24:03.616Z,102672.79
2018-09-26T16:26:32.982Z,102667.28
2018-09-26T16:29:03.334Z,102665.16
2018-09-26T16:31:51.915Z,102662.73
2018-09-26T16:34:27.584Z,102661.42
2018-09-26T16:36:57.762Z,102662.87
2018-09-26T16:39:27.212Z,102663.08
2018-09-26T16:41:56.659Z,102662.70
2018-09-26T16:44:26.263Z,102666.38
2018-09-26T16:46:55.741Z,102666.06
2018-09-26T16:49:25.189Z,102658.73
2018-09-26T16:51:54.595Z,102665.45
2018-09-26T16:54:24.064Z,102660.36
2018-09-26T16:56:53.532Z,102668.31
2018-09-26T16:59:22.939Z,102665.01
2018-09-26T17:04:27.095Z,102662.35
2018-09-26T17:06:56.387Z,102673.89
2018-09-26T17:09:25.850Z,102668.91
2018-09-26T17:11:55.253Z,102665.20
2018-09-26T17:14:24.705Z,102667.52
2018-09-26T17:16:54.078Z,102670.69
2018-09-26T17:19:23.576Z,102674.37
2018-09-26T17:21:52.947Z,102669.75
2018-09-26T17:24:22.441Z,102667.23
2018-09-26T17:26:51.817Z,102676.16
2018-09-26T17:29:21.200Z,102675.12
2018-09-26T17:31:50.611Z,102674.93
2018-09-26T17:34:21.142Z,102676.94
2018-09-26T17:36:50.682Z,102673.09
2018-09-26T17:39:20.094Z,102672.91
2018-09-26T17:41:49.623Z,102675.30
2018-09-26T17:44:19.082Z,102676.37
2018-09-26T17:46:48.483Z,102669.56
2018-09-26T17:49:18.006Z,102671.02
2018-09-26T17:51:47.350Z,102679.86
2018-09-26T17:54:16.713Z,102669.89
2018-09-26T17:56:46.076Z,102667.01
2018-09-26T17:59:15.559Z,102674.97
2018-09-26T18:01:44.959Z,102671.16
2018-09-26T18:04:14.529Z,102672.55
2018-09-26T18:06:43.958Z,102677.02
2018-09-26T18:09:13.665Z,102677.06
2018-09-26T18:11:43.103Z,102670.19
2018-09-26T18:14:12.499Z,102672.98
2018-09-26T18:16:41.904Z,102678.78
2018-09-26T18:19:11.410Z,102678.86
2018-09-26T18:21:41.000Z,102671.86
2018-09-26T18:24:10.414Z,102672.58
2018-09-26T18:26:39.828Z,102675.20
2018-09-26T18:29:09.308Z,102680.80
2018-09-26T18:31:38.860Z,102685.22
2018-09-26T18:34:08.232Z,102690.95
2018-09-26T18:36:37.664Z,102693.64
2018-09-26T18:39:10.441Z,102689.23
2018-09-26T18:41:40.729Z,102687.16
2018-09-26T18:44:11.112Z,102681.48
2018-09-26T18:46:40.520Z,102696.02
2018-09-26T18:49:10.006Z,102690.89
2018-09-26T18:51:39.467Z,102689.18
2018-09-26T18:54:08.988Z,102689.77
2018-09-26T18:56:38.462Z,102694.17
2018-09-26T18:59:08.065Z,102699.05
2018-09-26T19:01:37.588Z,102697.04
2018-09-26T19:04:10.936Z,102697.64
2018-09-26T19:06:40.683Z,102701.77
2018-09-26T19:09:11.408Z,102704.10
2018-09-26T19:11:40.875Z,102709.46
2018-09-26T19:14:10.382Z,102707.45
2018-09-26T19:16:40.093Z,102709.28
2018-09-26T19:19:09.611Z,102709.83
2018-09-26T19:21:39.199Z,102705.15
2018-09-26T19:24:08.889Z,102707.44
2018-09-26T19:26:38.671Z,102714.02
2018-09-26T19:29:08.901Z,102718.40
2018-09-26T19:31:38.396Z,102720.21
2018-09-26T19:34:07.937Z,102716.83
2018-09-26T19:36:37.399Z,102714.72
2018-09-26T19:39:12.527Z,102717.38
2018-09-26T19:41:42.148Z,102714.83
2018-09-26T19:44:11.661Z,102710.58
2018-09-26T19:46:41.065Z,102706.23
2018-09-26T19:49:10.637Z,102711.41
2018-09-26T19:51:40.345Z,102709.17
2018-09-26T19:54:10.498Z,102711.69
2018-09-26T19:56:40.022Z,102715.98
2018-09-26T19:59:28.718Z,102718.59
2018-09-26T20:01:58.457Z,102722.88
2018-09-26T20:04:27.944Z,102726.90
2018-09-26T20:06:57.692Z,102734.85
2018-09-26T20:09:29.754Z,102732.05
2018-09-26T20:11:59.264Z,102736.36
2018-09-26T20:14:28.859Z,102726.73
2018-09-26T20:16:58.719Z,102721.45
2018-09-26T20:19:28.825Z,102723.20
2018-09-26T20:21:58.586Z,102725.88
2018-09-26T20:24:28.229Z,102733.68
2018-09-26T20:26:57.957Z,102731.57
2018-09-26T20:29:27.696Z,102740.30
2018-09-26T20:31:57.120Z,102735.11
2018-09-26T20:34:26.747Z,102730.70
2018-09-26T20:36:56.334Z,102732.34
2018-09-26T20:39:30.275Z,102731.20
2018-09-26T20:41:59.727Z,102731.68
2018-09-26T20:44:29.581Z,102718.64
2018-09-26T20:46:59.766Z,102724.34
2018-09-26T20:49:29.499Z,102729.23
2018-09-26T20:51:59.335Z,102724.84
2018-09-26T20:54:28.863Z,102727.09
2018-09-26T20:56:59.214Z,102727.53
2018-09-26T20:59:29.615Z,102731.08
2018-09-26T21:02:13.870Z,102726.38
2018-09-26T21:04:43.576Z,102717.20
2018-09-26T21:07:13.044Z,102725.03
2018-09-26T21:09:42.488Z,102712.77
2018-09-26T21:12:12.138Z,102716.25
2018-09-26T21:14:41.654Z,102718.96
2018-09-26T21:17:12.429Z,102722.91
2018-09-26T21:19:41.969Z,102725.52
2018-09-26T21:22:11.413Z,102721.56
2018-09-26T21:24:41.079Z,102728.98
2018-09-26T21:27:10.452Z,102729.43
2018-09-26T21:29:39.972Z,102732.54
2018-09-26T21:32:09.479Z,102735.13
2018-09-26T21:34:38.929Z,102734.69
2018-09-26T21:37:08.361Z,102731.69
2018-09-26T21:39:57.127Z,102727.80
2018-09-26T21:42:29.296Z,102723.00
2018-09-26T21:44:58.804Z,102732.14
2018-09-26T21:47:28.142Z,102735.24
2018-09-26T21:49:57.829Z,102738.78
2018-09-26T21:52:27.234Z,102743.97
2018-09-26T21:54:56.586Z,102743.58
2018-09-26T21:57:26.005Z,102740.54
2018-09-26T21:59:55.509Z,102736.59
2018-09-26T22:02:24.869Z,102739.28
2018-09-26T22:04:54.308Z,102742.37
2018-09-26T22:07:23.716Z,102744.94
2018-09-26T22:09:53.520Z,102739.67
2018-09-26T22:12:22.939Z,102737.12
2018-09-26T22:14:52.342Z,102731.03
2018-09-26T22:17:21.691Z,102728.00
2018-09-26T22:19:51.121Z,102727.12
2018-09-26T22:22:20.552Z,102724.54
2018-09-26T22:24:50.036Z,102724.95
2018-09-26T22:27:19.466Z,102721.92
2018-09-26T22:29:48.971Z,102721.50
2018-09-26T22:32:18.320Z,102715.84
2018-09-26T22:34:47.679Z,102712.77
2018-09-26T22:37:17.284Z,102726.27
2018-09-26T22:39:46.647Z,102730.63
2018-09-26T22:42:16.091Z,102725.86
2018-09-26T22:44:47.714Z,102717.17
2018-09-26T22:47:17.150Z,102723.28
2018-09-26T22:49:46.557Z,102726.77
2018-09-26T22:52:15.897Z,102735.47
2018-09-26T22:54:45.263Z,102732.48
2018-09-26T22:57:14.673Z,102721.18
2018-09-26T22:59:44.089Z,102719.00
2018-09-26T23:02:13.580Z,102723.79
2018-09-26T23:04:43.464Z,102716.83
2018-09-26T23:07:13.040Z,102711.63
2018-09-26T23:09:42.507Z,102705.13
2018-09-26T23:12:11.878Z,102708.18
2018-09-26T23:14:41.242Z,102711.27
2018-09-26T23:17:10.611Z,102707.34
2018-09-26T23:19:40.015Z,102707.34
2018-09-26T23:22:09.434Z,102705.62
2018-09-26T23:24:38.858Z,102711.30
2018-09-26T23:27:08.328Z,102709.11
2018-09-26T23:29:37.715Z,102704.34
2018-09-26T23:32:07.134Z,102712.17
2018-09-26T23:34:36.543Z,102710.86
2018-09-26T23:37:05.951Z,102699.12
2018-09-26T23:39:35.309Z,102697.82
2018-09-26T23:42:05.740Z,102695.67
2018-09-26T23:44:37.024Z,102698.72
2018-09-26T23:47:15.635Z,102701.32
2018-09-26T23:49:45.969Z,102702.62
2018-09-26T23:52:15.473Z,102692.66
2018-09-26T23:54:44.942Z,102683.94
2018-09-26T23:57:14.312Z,102682.66
2018-09-26T23:59:43.780Z,102684.83
